createdAt,value
2018-06-15T00:00:43.332Z,1012.64
2018-06-15T00:01:43.309Z,1012.67
2018-06-15T00:02:43.283Z,1012.61
2018-06-15T00:03:43.258Z,1012.64
2018-06-15T00:04:43.236Z,1012.71
2018-06-15T00:05:43.210Z,1012.65
2018-06-15T00:06:43.185Z,1012.66
2018-06-15T00:07:43.161Z,1012.65
2018-06-15T00:08:43.138Z,1012.68
2018-06-15T00:09:43.113Z,1012.64
2018-06-15T00:10:43.089Z,1012.64
2018-06-15T00:11:43.064Z,1012.63
2018-06-15T00:12:43.044Z,1012.66
2018-06-15T00:13:43.019Z,1012.66
2018-06-15T00:14:42.994Z,1012.60
2018-06-15T00:15:42.966Z,1012.62
2018-06-15T00:16:42.943Z,1012.66
2018-06-15T00:17:42.920Z,1012.57
2018-06-15T00:18:42.895Z,1012.56
2018-06-15T00:19:42.872Z,1012.59
2018-06-15T00:20:42.849Z,1012.68
2018-06-15T00:21:42.824Z,1012.64
2018-06-15T00:22:42.805Z,1012.61
2018-06-15T00:23:42.776Z,1012.62
2018-06-15T00:24:42.750Z,1012.60
2018-06-15T00:25:42.727Z,1012.61
2018-06-15T00:26:42.702Z,1012.61
2018-06-15T00:27:42.678Z,1012.61
2018-06-15T00:28:42.655Z,1012.67
2018-06-15T00:29:42.631Z,1012.66
2018-06-15T00:30:42.607Z,1012.59
2018-06-15T00:31:42.581Z,1012.66
2018-06-15T00:32:42.559Z,1012.63
2018-06-15T00:33:42.533Z,1012.66
2018-06-15T00:34:42.509Z,1012.62
2018-06-15T00:35:42.487Z,1012.69
2018-06-15T00:36:42.459Z,1012.65
2018-06-15T00:37:42.440Z,1012.63
2018-06-15T00:38:42.412Z,1012.62
2018-06-15T00:39:42.388Z,1012.61
2018-06-15T00:40:42.364Z,1012.64
2018-06-15T00:41:42.340Z,1012.65
2018-06-15T00:42:42.316Z,1012.66
2018-06-15T00:43:42.291Z,1012.66
2018-06-15T00:44:42.268Z,1012.65
2018-06-15T00:45:42.244Z,1012.66
2018-06-15T00:46:42.218Z,1012.70
2018-06-15T00:47:42.194Z,1012.68
2018-06-15T00:48:42.171Z,1012.66
2018-06-15T00:49:42.151Z,1012.67
2018-06-15T00:50:42.123Z,1012.64
2018-06-15T00:51:42.099Z,1012.71
2018-06-15T00:52:42.087Z,1012.67
2018-06-15T00:53:42.050Z,1012.67
2018-06-15T00:54:42.029Z,1012.69
2018-06-15T00:55:42.007Z,1012.74
2018-06-15T00:56:41.979Z,1012.73
2018-06-15T00:57:41.969Z,1012.74
2018-06-15T00:58:41.930Z,1012.73
2018-06-15T00:59:41.908Z,1012.70
2018-06-15T01:00:41.885Z,1012.71
2018-06-15T01:01:41.856Z,1012.72
2018-06-15T01:02:41.835Z,1012.71
2018-06-15T01:03:41.816Z,1012.67
2018-06-15T01:04:41.935Z,1012.67
2018-06-15T01:05:41.761Z,1012.69
2018-06-15T01:06:41.738Z,1012.73
2018-06-15T01:07:41.710Z,1012.73
2018-06-15T01:08:41.688Z,1012.74
2018-06-15T01:09:41.662Z,1012.74
2018-06-15T01:10:41.640Z,1012.70
2018-06-15T01:11:41.616Z,1012.68
2018-06-15T01:12:41.596Z,1012.71
2018-06-15T01:13:41.566Z,1012.75
2018-06-15T01:14:41.542Z,1012.77
2018-06-15T01:15:41.522Z,1012.74
2018-06-15T01:16:41.493Z,1012.79
2018-06-15T01:17:41.471Z,1012.80
2018-06-15T01:18:41.445Z,1012.76
2018-06-15T01:19:41.420Z,1012.82
2018-06-15T01:20:41.447Z,1012.79
2018-06-15T01:21:41.372Z,1012.83
2018-06-15T01:22:41.504Z,1012.75
2018-06-15T01:23:41.321Z,1012.78
2018-06-15T01:24:41.298Z,1012.74
2018-06-15T01:25:41.272Z,1012.79
2018-06-15T01:26:41.249Z,1012.78
2018-06-15T01:27:41.224Z,1012.75
2018-06-15T01:28:41.198Z,1012.78
2018-06-15T01:29:41.175Z,1012.70
2018-06-15T01:30:41.150Z,1012.74
2018-06-15T01:31:41.125Z,1012.72
2018-06-15T01:32:41.101Z,1012.68
2018-06-15T01:33:41.079Z,1012.74
2018-06-15T01:34:41.053Z,1012.76
2018-06-15T01:35:41.028Z,1012.74
2018-06-15T01:36:41.004Z,1012.74
2018-06-15T01:37:40.979Z,1012.70
2018-06-15T01:38:40.959Z,1012.76
2018-06-15T01:39:40.929Z,1012.79
2018-06-15T01:40:41.707Z,1012.75
2018-06-15T01:41:40.886Z,1012.78
2018-06-15T01:42:40.859Z,1012.79
2018-06-15T01:43:40.831Z,1012.77
2018-06-15T01:44:40.809Z,1012.75
2018-06-15T01:45:40.783Z,1012.80
2018-06-15T01:46:40.759Z,1012.81
2018-06-15T01:47:40.732Z,1012.77
2018-06-15T01:48:40.709Z,1012.78
2018-06-15T01:49:40.686Z,1012.81
2018-06-15T01:50:40.664Z,1012.77
2018-06-15T01:51:40.635Z,1012.78
2018-06-15T01:52:40.609Z,1012.82
2018-06-15T01:53:40.586Z,1012.82
2018-06-15T01:54:40.762Z,1012.76
2018-06-15T01:55:40.536Z,1012.85
2018-06-15T01:56:40.511Z,1012.80
2018-06-15T01:57:40.493Z,1012.81
2018-06-15T01:58:40.466Z,1012.73
2018-06-15T01:59:40.437Z,1012.79
2018-06-15T02:00:40.413Z,1012.73
2018-06-15T02:01:40.388Z,1012.79
2018-06-15T02:02:40.364Z,1012.75
2018-06-15T02:03:40.339Z,1012.75
2018-06-15T02:04:40.313Z,1012.77
2018-06-15T02:05:40.289Z,1012.78
2018-06-15T02:06:40.265Z,1012.76
2018-06-15T02:07:40.241Z,1012.78
2018-06-15T02:08:40.214Z,1012.75
2018-06-15T02:09:40.190Z,1012.77
2018-06-15T02:10:40.169Z,1012.75
2018-06-15T02:11:40.140Z,1012.79
2018-06-15T02:12:40.118Z,1012.81
2018-06-15T02:13:40.091Z,1012.83
2018-06-15T02:14:40.069Z,1012.81
2018-06-15T02:15:40.041Z,1012.85
2018-06-15T02:16:40.020Z,1012.81
2018-06-15T02:17:39.993Z,1012.76
2018-06-15T02:18:39.971Z,1012.74
2018-06-15T02:19:39.942Z,1012.77
2018-06-15T02:20:39.917Z,1012.74
2018-06-15T02:21:39.894Z,1012.73
2018-06-15T02:22:40.019Z,1012.78
2018-06-15T02:23:39.844Z,1012.82
2018-06-15T02:24:39.819Z,1012.82
2018-06-15T02:25:39.795Z,1012.79
2018-06-15T02:26:39.770Z,1012.83
2018-06-15T02:27:39.745Z,1012.84
2018-06-15T02:28:39.927Z,1012.81
2018-06-15T02:29:39.700Z,1012.84
2018-06-15T02:30:39.675Z,1012.84
2018-06-15T02:31:39.645Z,1012.84
2018-06-15T02:32:39.626Z,1012.84
2018-06-15T02:33:39.597Z,1012.85
2018-06-15T02:34:39.575Z,1012.84
2018-06-15T02:35:39.547Z,1012.83
2018-06-15T02:36:39.527Z,1012.81
2018-06-15T02:37:39.498Z,1012.80
2018-06-15T02:38:39.477Z,1012.86
2018-06-15T02:39:39.447Z,1012.87
2018-06-15T02:40:39.424Z,1012.90
2018-06-15T02:41:39.397Z,1012.92
2018-06-15T02:42:39.373Z,1012.93
2018-06-15T02:43:39.347Z,1012.96
2018-06-15T02:44:39.325Z,1012.96
2018-06-15T02:45:39.299Z,1012.94
2018-06-15T02:46:39.275Z,1012.98
2018-06-15T02:47:39.249Z,1012.93
2018-06-15T02:48:39.224Z,1012.98
2018-06-15T02:49:39.200Z,1012.99
2018-06-15T02:50:39.175Z,1013.02
2018-06-15T02:51:39.149Z,1013.01
2018-06-15T02:52:39.124Z,1013.01
2018-06-15T02:53:39.100Z,1013.03
2018-06-15T02:54:39.076Z,1013.01
2018-06-15T02:55:39.055Z,1013.04
2018-06-15T02:56:39.027Z,1013.07
2018-06-15T02:57:39.001Z,1013.03
2018-06-15T02:58:38.979Z,1013.09
2018-06-15T02:59:38.952Z,1013.06
2018-06-15T03:00:38.936Z,1013.10
2018-06-15T03:01:38.903Z,1013.09
2018-06-15T03:02:38.877Z,1013.09
2018-06-15T03:03:39.003Z,1013.11
2018-06-15T03:04:38.827Z,1013.10
2018-06-15T03:05:38.804Z,1013.11
2018-06-15T03:06:38.780Z,1013.14
2018-06-15T03:07:38.752Z,1013.14
2018-06-15T03:08:38.731Z,1013.17
2018-06-15T03:09:39.104Z,1013.16
2018-06-15T03:10:38.702Z,1013.16
2018-06-15T03:11:38.660Z,1013.19
2018-06-15T03:12:38.629Z,1013.19
2018-06-15T03:13:38.608Z,1013.19
2018-06-15T03:14:38.580Z,1013.19
2018-06-15T03:15:38.705Z,1013.18
2018-06-15T03:16:38.531Z,1013.17
2018-06-15T03:17:38.507Z,1013.19
2018-06-15T03:18:38.482Z,1013.13
2018-06-15T03:19:38.456Z,1013.21
2018-06-15T03:20:38.431Z,1013.19
2018-06-15T03:21:38.442Z,1013.21
2018-06-15T03:22:38.382Z,1013.23
2018-06-15T03:23:38.356Z,1013.23
2018-06-15T03:24:38.332Z,1013.21
2018-06-15T03:25:38.307Z,1013.27
2018-06-15T03:26:38.283Z,1013.29
2018-06-15T03:27:38.408Z,1013.29
2018-06-15T03:28:38.231Z,1013.29
2018-06-15T03:29:38.208Z,1013.25
2018-06-15T03:30:38.186Z,1013.28
2018-06-15T03:31:38.158Z,1013.27
2018-06-15T03:32:38.136Z,1013.29
2018-06-15T03:33:38.110Z,1013.30
2018-06-15T03:34:38.087Z,1013.22
2018-06-15T03:35:38.060Z,1013.27
2018-06-15T03:36:38.036Z,1013.34
2018-06-15T03:37:38.031Z,1013.29
2018-06-15T03:38:37.986Z,1013.34
2018-06-15T03:39:37.961Z,1013.35
2018-06-15T03:40:37.936Z,1013.35
2018-06-15T03:41:37.912Z,1013.38
2018-06-15T03:42:37.891Z,1013.38
2018-06-15T03:43:37.861Z,1013.38
2018-06-15T03:44:38.038Z,1013.40
2018-06-15T03:45:37.816Z,1013.43
2018-06-15T03:46:37.788Z,1013.44
2018-06-15T03:47:37.762Z,1013.46
2018-06-15T03:48:37.739Z,1013.49
2018-06-15T03:49:37.716Z,1013.50
2018-06-15T03:50:37.689Z,1013.53
2018-06-15T03:51:37.664Z,1013.51
2018-06-15T03:52:37.640Z,1013.54
2018-06-15T03:53:37.620Z,1013.62
2018-06-15T03:54:37.591Z,1013.58
2018-06-15T03:55:37.568Z,1013.64
2018-06-15T03:56:37.542Z,1013.65
2018-06-15T03:57:37.519Z,1013.67
2018-06-15T03:58:37.696Z,1013.63
2018-06-15T03:59:37.467Z,1013.70
2018-06-15T04:00:37.443Z,1013.71
2018-06-15T04:01:37.418Z,1013.71
2018-06-15T04:02:37.395Z,1013.75
2018-06-15T04:03:37.369Z,1013.74
2018-06-15T04:04:37.345Z,1013.76
2018-06-15T04:05:37.322Z,1013.78
2018-06-15T04:06:37.297Z,1013.80
2018-06-15T04:07:37.275Z,1013.83
2018-06-15T04:08:37.248Z,1013.83
2018-06-15T04:09:37.223Z,1013.76
2018-06-15T04:10:37.199Z,1013.82
2018-06-15T04:11:37.175Z,1013.82
2018-06-15T04:12:37.151Z,1013.87
2018-06-15T04:13:37.127Z,1013.84
2018-06-15T04:14:37.107Z,1013.88
2018-06-15T04:15:37.098Z,1013.88
2018-06-15T04:16:37.057Z,1013.92
2018-06-15T04:17:37.029Z,1013.89
2018-06-15T04:18:37.010Z,1013.88
2018-06-15T04:19:36.982Z,1013.91
2018-06-15T04:20:36.959Z,1013.85
2018-06-15T04:21:36.936Z,1013.86
2018-06-15T04:22:36.910Z,1013.89
2018-06-15T04:23:36.887Z,1013.86
2018-06-15T04:24:36.867Z,1013.94
2018-06-15T04:25:37.045Z,1013.94
2018-06-15T04:26:36.818Z,1013.97
2018-06-15T04:27:36.794Z,1014.00
2018-06-15T04:28:36.770Z,1013.99
2018-06-15T04:29:36.747Z,1014.05
2018-06-15T04:30:36.723Z,1014.05
2018-06-15T04:31:36.699Z,1014.11
2018-06-15T04:32:36.878Z,1014.12
2018-06-15T04:33:36.855Z,1014.15
2018-06-15T04:34:36.629Z,1014.14
2018-06-15T04:35:36.606Z,1014.10
2018-06-15T04:36:36.583Z,1014.12
2018-06-15T04:37:36.560Z,1014.17
2018-06-15T04:38:36.744Z,1014.16
2018-06-15T04:39:36.518Z,1014.20
2018-06-15T04:40:36.692Z,1014.28
2018-06-15T04:41:36.469Z,1014.29
2018-06-15T04:42:36.647Z,1014.36
2018-06-15T04:43:36.421Z,1014.39
2018-06-15T04:44:36.397Z,1014.34
2018-06-15T04:45:36.376Z,1014.32
2018-06-15T04:46:36.357Z,1014.38
2018-06-15T04:47:36.329Z,1014.25
2018-06-15T04:48:36.309Z,1014.41
2018-06-15T04:49:36.285Z,1014.08
2018-06-15T04:50:36.273Z,1014.25
2018-06-15T04:51:36.239Z,1014.42
2018-06-15T04:52:36.217Z,1014.37
2018-06-15T04:53:36.194Z,1014.20
2018-06-15T04:54:36.172Z,1014.77
2018-06-15T04:55:36.150Z,1014.41
2018-06-15T04:56:36.167Z,1015.13
2018-06-15T04:57:36.106Z,1015.24
2018-06-15T04:58:36.081Z,1015.37
2018-06-15T04:59:36.065Z,1016.17
2018-06-15T05:00:36.047Z,1014.87
2018-06-15T05:01:36.028Z,1015.11
2018-06-15T05:02:35.990Z,1014.39
2018-06-15T05:03:35.982Z,1014.27
2018-06-15T05:04:35.947Z,1014.32
2018-06-15T05:05:35.927Z,1014.30
2018-06-15T05:06:35.902Z,1014.39
2018-06-15T05:07:35.879Z,1014.57
2018-06-15T05:08:35.857Z,1014.36
2018-06-15T05:09:35.842Z,1014.31
2018-06-15T05:10:35.813Z,1014.29
2018-06-15T05:11:35.790Z,1014.28
2018-06-15T05:12:35.768Z,1014.79
2018-06-15T05:13:35.746Z,1014.87
2018-06-15T05:14:35.728Z,1014.58
2018-06-15T05:15:35.701Z,1014.79
2018-06-15T05:16:35.680Z,1014.40
2018-06-15T05:17:35.658Z,1014.61
2018-06-15T05:18:35.642Z,1014.76
2018-06-15T05:19:35.613Z,1014.50
2018-06-15T05:20:35.599Z,1014.77
2018-06-15T05:21:35.571Z,1014.37
2018-06-15T05:22:35.554Z,1014.44
2018-06-15T05:23:35.528Z,1014.37
2018-06-15T05:24:35.655Z,1014.42
2018-06-15T05:25:35.484Z,1014.55
2018-06-15T05:26:35.467Z,1014.43
2018-06-15T05:27:35.442Z,1014.45
2018-06-15T05:28:35.423Z,1014.56
2018-06-15T05:29:35.396Z,1014.99
2018-06-15T05:30:35.375Z,1014.92
2018-06-15T05:31:35.356Z,1014.53
2018-06-15T05:32:35.330Z,1014.59
2018-06-15T05:33:35.511Z,1015.00
2018-06-15T05:34:35.288Z,1015.12
2018-06-15T05:35:35.265Z,1015.00
2018-06-15T05:36:35.244Z,1015.20
2018-06-15T05:37:35.223Z,1015.22
2018-06-15T05:38:35.201Z,1015.24
2018-06-15T05:39:35.180Z,1014.87
2018-06-15T05:40:35.159Z,1015.36
2018-06-15T05:41:35.137Z,1015.45
2018-06-15T05:42:35.367Z,1015.54
2018-06-15T05:43:35.096Z,1015.49
2018-06-15T05:44:35.076Z,1015.49
2018-06-15T05:45:35.055Z,1015.59
2018-06-15T05:46:35.041Z,1014.84
2018-06-15T05:47:35.015Z,1014.81
2018-06-15T05:48:34.994Z,1014.81
2018-06-15T05:49:34.974Z,1014.87
2018-06-15T05:50:34.961Z,1014.94
2018-06-15T05:51:34.937Z,1015.25
2018-06-15T05:52:34.913Z,1016.04
2018-06-15T05:53:34.893Z,1016.05
2018-06-15T05:54:34.874Z,1016.04
2018-06-15T05:55:34.852Z,1016.11
2018-06-15T05:56:34.835Z,1015.89
2018-06-15T05:57:34.812Z,1016.06
2018-06-15T05:58:34.792Z,1016.20
2018-06-15T05:59:34.772Z,1016.11
2018-06-15T06:00:34.751Z,1015.50
2018-06-15T06:01:34.732Z,1014.90
2018-06-15T06:02:34.713Z,1016.12
2018-06-15T06:03:34.691Z,1016.31
2018-06-15T06:04:34.875Z,1016.48
2018-06-15T06:05:34.657Z,1016.36
2018-06-15T06:06:34.836Z,1016.22
2018-06-15T06:07:34.816Z,1015.59
2018-06-15T06:08:34.797Z,1016.25
2018-06-15T06:09:34.778Z,1016.30
2018-06-15T06:10:34.558Z,1016.30
2018-06-15T06:11:34.541Z,1016.30
2018-06-15T06:12:34.519Z,1016.28
2018-06-15T06:13:34.501Z,1016.29
2018-06-15T06:14:34.485Z,1016.10
2018-06-15T06:15:34.466Z,1016.30
2018-06-15T06:16:34.445Z,1016.31
2018-06-15T06:17:34.630Z,1015.51
2018-06-15T06:18:34.412Z,1014.89
2018-06-15T06:19:34.390Z,1016.18
2018-06-15T06:20:34.390Z,1016.32
2018-06-15T06:21:34.366Z,1016.36
2018-06-15T06:22:34.338Z,1016.36
2018-06-15T06:23:34.319Z,1016.41
2018-06-15T06:24:34.309Z,1016.42
2018-06-15T06:25:34.284Z,1016.26
2018-06-15T06:26:34.267Z,1015.85
2018-06-15T06:27:34.250Z,1016.37
2018-06-15T06:28:34.232Z,1016.39
2018-06-15T06:29:34.213Z,1016.47
2018-06-15T06:30:34.197Z,1016.56
2018-06-15T06:31:34.178Z,1016.42
2018-06-15T06:32:34.165Z,1015.20
2018-06-15T06:33:34.144Z,1016.47
2018-06-15T06:34:34.126Z,1015.19
2018-06-15T06:35:34.110Z,1015.36
2018-06-15T06:36:34.093Z,1015.10
2018-06-15T06:37:34.075Z,1016.46
2018-06-15T06:38:34.058Z,1016.43
2018-06-15T06:39:34.041Z,1016.22
2018-06-15T06:40:34.023Z,1015.88
2018-06-15T06:41:34.006Z,1015.44
2018-06-15T06:42:33.988Z,1016.64
2018-06-15T06:43:33.973Z,1016.67
2018-06-15T06:44:33.952Z,1016.49
2018-06-15T06:45:33.933Z,1015.45
2018-06-15T06:46:33.918Z,1016.04
2018-06-15T06:47:33.900Z,1016.46
2018-06-15T06:48:33.883Z,1016.48
2018-06-15T06:49:33.865Z,1016.48
2018-06-15T06:50:33.858Z,1015.22
2018-06-15T06:51:33.831Z,1015.18
2018-06-15T06:52:33.812Z,1015.16
2018-06-15T06:53:33.796Z,1015.22
2018-06-15T06:54:33.783Z,1015.14
2018-06-15T06:55:33.759Z,1015.14
2018-06-15T06:56:33.744Z,1015.19
2018-06-15T06:57:33.724Z,1016.64
2018-06-15T06:58:33.777Z,1016.74
2018-06-15T06:59:33.836Z,1016.69
2018-06-15T07:00:33.669Z,1016.75
2018-06-15T07:01:33.651Z,1016.73
2018-06-15T07:02:33.640Z,1016.70
2018-06-15T07:03:33.614Z,1016.65
2018-06-15T07:04:33.597Z,1016.72
2018-06-15T07:05:33.578Z,1016.56
2018-06-15T07:06:33.561Z,1015.40
2018-06-15T07:07:33.543Z,1015.88
2018-06-15T07:08:33.526Z,1015.34
2018-06-15T07:09:33.509Z,1015.26
2018-06-15T07:10:33.491Z,1015.26
2018-06-15T07:11:33.473Z,1015.32
2018-06-15T07:12:33.455Z,1015.40
2018-06-15T07:13:33.437Z,1016.75
2018-06-15T07:14:33.420Z,1016.30
2018-06-15T07:15:33.402Z,1015.49
2018-06-15T07:16:33.386Z,1015.35
2018-06-15T07:17:33.365Z,1015.26
2018-06-15T07:18:33.346Z,1015.32
2018-06-15T07:19:33.328Z,1016.12
2018-06-15T07:20:33.312Z,1016.14
2018-06-15T07:21:33.293Z,1015.49
2018-06-15T07:22:33.274Z,1015.32
2018-06-15T07:23:33.260Z,1015.26
2018-06-15T07:24:33.238Z,1015.31
2018-06-15T07:25:33.221Z,1015.32
2018-06-15T07:26:33.201Z,1016.33
2018-06-15T07:27:33.185Z,1015.39
2018-06-15T07:28:33.166Z,1015.80
2018-06-15T07:29:33.146Z,1015.42
2018-06-15T07:30:33.126Z,1015.39
2018-06-15T07:31:33.105Z,1015.36
2018-06-15T07:32:33.086Z,1015.40
2018-06-15T07:33:33.082Z,1015.33
2018-06-15T07:34:33.048Z,1015.43
2018-06-15T07:35:33.028Z,1016.72
2018-06-15T07:36:33.009Z,1016.71
2018-06-15T07:37:32.991Z,1016.70
2018-06-15T07:38:32.970Z,1016.71
2018-06-15T07:39:32.954Z,1016.74
2018-06-15T07:40:32.939Z,1016.70
2018-06-15T07:41:32.916Z,1015.48
2018-06-15T07:42:32.901Z,1015.37
2018-06-15T07:43:32.876Z,1015.34
2018-06-15T07:44:32.858Z,1015.33
2018-06-15T07:45:32.840Z,1015.35
2018-06-15T07:46:32.824Z,1015.37
2018-06-15T07:47:32.803Z,1015.43
2018-06-15T07:48:32.793Z,1016.15
2018-06-15T07:49:32.769Z,1016.70
2018-06-15T07:50:32.748Z,1016.70
2018-06-15T07:51:32.729Z,1016.72
2018-06-15T07:52:32.775Z,1016.72
2018-06-15T07:53:32.692Z,1016.73
2018-06-15T07:54:32.880Z,1016.71
2018-06-15T07:55:32.658Z,1016.73
2018-06-15T07:56:32.638Z,1016.75
2018-06-15T07:57:32.828Z,1016.76
2018-06-15T07:58:32.806Z,1016.83
2018-06-15T07:59:32.645Z,1016.86
2018-06-15T08:00:32.778Z,1016.81
2018-06-15T08:01:32.757Z,1016.81
2018-06-15T08:02:32.742Z,1016.86
2018-06-15T08:03:32.724Z,1016.86
2018-06-15T08:04:32.709Z,1016.80
2018-06-15T08:05:32.694Z,1016.74
2018-06-15T08:06:32.480Z,1016.72
2018-06-15T08:07:32.663Z,1016.74
2018-06-15T08:08:32.647Z,1016.77
2018-06-15T08:09:32.633Z,1016.82
2018-06-15T08:10:32.417Z,1016.82
2018-06-15T08:12:14.762Z,1016.50
2018-06-15T08:13:14.548Z,1016.70
2018-06-15T08:14:14.533Z,1016.04
2018-06-15T08:15:14.521Z,1015.50
2018-06-15T08:16:14.503Z,1015.48
2018-06-15T08:17:14.489Z,1015.43
2018-06-15T08:18:14.479Z,1015.50
2018-06-15T08:19:14.461Z,1015.56
2018-06-15T08:20:14.447Z,1015.54
2018-06-15T08:21:14.435Z,1015.99
2018-06-15T08:22:14.417Z,1016.79
2018-06-15T08:23:14.401Z,1016.81
2018-06-15T08:24:14.389Z,1015.56
2018-06-15T08:25:14.370Z,1015.66
2018-06-15T08:26:14.355Z,1016.50
2018-06-15T08:27:14.345Z,1016.82
2018-06-15T08:28:14.324Z,1016.82
2018-06-15T08:29:14.307Z,1015.82
2018-06-15T08:30:14.497Z,1015.72
2018-06-15T08:31:14.281Z,1015.97
2018-06-15T08:32:14.260Z,1015.71
2018-06-15T08:33:14.245Z,1015.67
2018-06-15T08:34:14.229Z,1016.47
2018-06-15T08:35:14.213Z,1016.84
2018-06-15T08:36:14.198Z,1016.78
2018-06-15T08:37:14.383Z,1016.72
2018-06-15T08:38:14.368Z,1016.17
2018-06-15T08:39:14.151Z,1016.36
2018-06-15T08:40:14.138Z,1016.88
2018-06-15T08:41:14.118Z,1016.87
2018-06-15T08:42:14.105Z,1016.83
2018-06-15T08:43:14.088Z,1016.81
2018-06-15T08:44:14.073Z,1016.88
2018-06-15T08:45:14.061Z,1016.89
2018-06-15T08:46:14.043Z,1016.91
2018-06-15T08:47:14.034Z,1016.91
2018-06-15T08:48:14.216Z,1016.96
2018-06-15T08:49:13.999Z,1016.98
2018-06-15T08:50:14.191Z,1016.96
2018-06-15T08:51:14.176Z,1016.99
2018-06-15T08:52:13.958Z,1016.97
2018-06-15T08:53:13.944Z,1017.02
2018-06-15T08:54:14.134Z,1016.93
2018-06-15T08:55:13.922Z,1016.98
2018-06-15T08:56:14.107Z,1017.01
2018-06-15T08:57:13.900Z,1016.49
2018-06-15T08:58:14.081Z,1016.90
2018-06-15T08:59:14.070Z,1016.91
2018-06-15T09:00:13.857Z,1016.89
2018-06-15T09:01:16.665Z,1016.90
2018-06-15T09:02:14.030Z,1016.56
2018-06-15T09:03:14.020Z,1016.86
2018-06-15T09:04:14.006Z,1015.81
2018-06-15T09:05:13.791Z,1015.74
2018-06-15T09:06:13.780Z,1015.77
2018-06-15T09:07:13.766Z,1015.75
2018-06-15T09:08:13.962Z,1015.69
2018-06-15T09:09:13.741Z,1015.74
2018-06-15T09:10:13.881Z,1015.67
2018-06-15T09:11:16.942Z,1015.70
2018-06-15T09:12:13.903Z,1015.72
2018-06-15T09:13:13.888Z,1015.72
2018-06-15T09:14:13.876Z,1015.70
2018-06-15T09:15:13.859Z,1015.75
2018-06-15T09:16:16.466Z,1015.66
2018-06-15T09:17:13.828Z,1015.68
2018-06-15T09:18:13.839Z,1015.70
2018-06-15T09:19:13.799Z,1015.71
2018-06-15T09:20:13.781Z,1016.80
2018-06-15T09:21:13.564Z,1016.82
2018-06-15T09:23:38.063Z,1016.47
2018-06-15T09:24:37.848Z,1016.74
2018-06-15T09:25:37.829Z,1016.88
2018-06-15T09:26:37.813Z,1016.92
2018-06-15T09:27:37.802Z,1016.88
2018-06-15T09:28:37.993Z,1016.91
2018-06-15T09:29:37.972Z,1016.96
2018-06-15T09:30:37.753Z,1017.06
2018-06-15T09:31:37.943Z,1017.14
2018-06-15T09:32:37.739Z,1017.05
2018-06-15T09:33:37.710Z,1016.91
2018-06-15T09:34:37.900Z,1016.74
2018-06-15T09:35:37.885Z,1016.68
2018-06-15T09:36:37.669Z,1016.57
2018-06-15T09:37:37.659Z,1016.53
2018-06-15T09:38:37.644Z,1016.48
2018-06-15T09:39:37.637Z,1016.35
2018-06-15T09:40:38.630Z,1016.34
2018-06-15T09:41:37.811Z,1016.32
2018-06-15T09:42:37.796Z,1016.31
2018-06-15T09:43:37.783Z,1016.36
2018-06-15T09:44:37.772Z,1016.29
2018-06-15T09:46:19.935Z,1016.24
2018-06-15T09:47:19.912Z,1016.24
2018-06-15T09:48:19.900Z,1016.28
2018-06-15T09:49:19.889Z,1016.28
2018-06-15T09:50:19.878Z,1016.23
2018-06-15T09:51:19.867Z,1016.24
2018-06-15T09:52:19.856Z,1016.26
2018-06-15T09:53:19.846Z,1015.91
2018-06-15T09:54:19.634Z,1015.77
2018-06-15T09:55:19.629Z,1016.22
2018-06-15T09:56:19.612Z,1016.23
2018-06-15T09:57:19.602Z,1016.32
2018-06-15T09:58:19.594Z,1016.34
2018-06-15T09:59:19.580Z,1016.37
2018-06-15T10:00:19.773Z,1016.37
2018-06-15T10:01:19.559Z,1016.34
2018-06-15T10:02:19.753Z,1016.37
2018-06-15T10:03:19.743Z,1016.37
2018-06-15T10:04:19.528Z,1016.36
2018-06-15T10:05:19.523Z,1016.38
2018-06-15T10:06:19.509Z,1016.42
2018-06-15T10:07:19.501Z,1016.41
2018-06-15T10:08:19.695Z,1016.36
2018-06-15T10:09:19.681Z,1016.32
2018-06-15T10:10:19.473Z,1016.43
2018-06-15T10:11:19.662Z,1016.40
2018-06-15T10:12:19.454Z,1016.43
2018-06-15T10:13:19.643Z,1016.41
2018-06-15T10:14:19.431Z,1016.32
2018-06-15T10:15:22.244Z,1016.40
2018-06-15T10:16:19.416Z,1016.50
2018-06-15T10:17:19.417Z,1016.48
2018-06-15T10:18:19.394Z,1016.49
2018-06-15T10:19:19.387Z,1016.48
2018-06-15T10:20:19.383Z,1016.57
2018-06-15T10:21:19.365Z,1016.58
2018-06-15T10:22:19.358Z,1016.62
2018-06-15T10:23:19.347Z,1016.52
2018-06-15T10:24:19.336Z,1016.55
2018-06-15T10:25:19.326Z,1016.61
2018-06-15T10:26:19.322Z,1016.56
2018-06-15T10:27:19.516Z,1016.60
2018-06-15T10:28:19.296Z,1016.69
2018-06-15T10:29:19.286Z,1016.65
2018-06-15T10:30:19.277Z,1016.70
2018-06-15T10:31:19.268Z,1016.65
2018-06-15T10:32:19.459Z,1016.75
2018-06-15T10:33:19.449Z,1016.77
2018-06-15T10:34:19.440Z,1016.80
2018-06-15T10:35:19.227Z,1016.77
2018-06-15T10:36:19.420Z,1016.28
2018-06-15T10:37:19.214Z,1016.06
2018-06-15T10:38:19.200Z,1015.97
2018-06-15T10:39:19.226Z,1015.97
2018-06-15T10:40:19.181Z,1015.93
2018-06-15T10:42:47.128Z,1015.84
2018-06-15T10:43:46.308Z,1015.83
2018-06-15T10:44:43.675Z,1015.83
2018-06-15T10:45:43.686Z,1015.83
2018-06-15T10:46:43.451Z,1015.81
2018-06-15T10:47:43.437Z,1015.79
2018-06-15T10:48:43.425Z,1015.80
2018-06-15T10:49:43.412Z,1015.77
2018-06-15T10:50:43.399Z,1015.74
2018-06-15T10:51:43.590Z,1015.79
2018-06-15T10:52:46.398Z,1015.79
2018-06-15T10:53:46.181Z,1015.79
2018-06-15T10:54:46.774Z,1015.73
2018-06-15T10:55:43.539Z,1015.72
2018-06-15T10:56:43.314Z,1015.73
2018-06-15T10:57:43.500Z,1015.74
2018-06-15T10:58:43.484Z,1015.75
2018-06-15T10:59:43.269Z,1015.78
2018-06-15T11:00:43.250Z,1015.70
2018-06-15T11:01:43.235Z,1015.71
2018-06-15T11:02:43.218Z,1015.73
2018-06-15T11:03:43.406Z,1015.70
2018-06-15T11:04:43.190Z,1015.69
2018-06-15T11:05:43.171Z,1015.72
2018-06-15T11:06:43.153Z,1015.68
2018-06-15T11:07:43.339Z,1015.73
2018-06-15T11:08:43.124Z,1015.70
2018-06-15T11:09:45.927Z,1015.71
2018-06-15T11:10:43.290Z,1015.70
2018-06-15T11:11:43.273Z,1015.65
2018-06-15T11:12:43.254Z,1015.62
2018-06-15T11:13:43.237Z,1015.64
2018-06-15T11:14:43.020Z,1015.64
2018-06-15T11:15:43.060Z,1015.65
2018-06-15T11:16:42.984Z,1015.68
2018-06-15T11:17:42.969Z,1015.70
2018-06-15T11:18:42.951Z,1015.74
2018-06-15T11:19:42.932Z,1015.72
2018-06-15T11:20:42.916Z,1015.76
2018-06-15T11:21:42.898Z,1016.18
2018-06-15T11:22:42.882Z,1015.75
2018-06-15T11:23:42.864Z,1015.67
2018-06-15T11:24:42.847Z,1015.69
2018-06-15T11:25:42.831Z,1016.87
2018-06-15T11:26:42.814Z,1016.99
2018-06-15T11:27:42.809Z,1017.01
2018-06-15T11:28:42.983Z,1016.98
2018-06-15T11:29:42.766Z,1016.99
2018-06-15T11:30:42.750Z,1016.93
2018-06-15T11:31:42.734Z,1016.94
2018-06-15T11:32:42.921Z,1017.01
2018-06-15T11:33:42.705Z,1017.00
2018-06-15T11:34:43.097Z,1016.88
2018-06-15T11:35:42.679Z,1016.92
2018-06-15T11:36:42.668Z,1016.83
2018-06-15T11:37:42.657Z,1016.88
2018-06-15T11:38:42.640Z,1016.86
2018-06-15T11:39:42.627Z,1016.82
2018-06-15T11:40:42.816Z,1016.81
2018-06-15T11:41:42.807Z,1016.89
2018-06-15T11:42:42.594Z,1016.96
2018-06-15T11:43:42.782Z,1016.95
2018-06-15T11:44:42.570Z,1016.92
2018-06-15T11:45:42.761Z,1016.91
2018-06-15T11:46:42.550Z,1016.87
2018-06-15T11:47:42.738Z,1016.84
2018-06-15T11:48:42.732Z,1016.85
2018-06-15T11:49:42.718Z,1016.84
2018-06-15T11:50:42.708Z,1016.76
2018-06-15T11:51:42.497Z,1016.74
2018-06-15T11:52:42.486Z,1016.68
2018-06-15T11:54:24.841Z,1016.68
2018-06-15T11:55:24.630Z,1016.74
2018-06-15T11:56:24.828Z,1016.75
2018-06-15T11:57:24.867Z,1016.76
2018-06-15T11:58:24.809Z,1016.76
2018-06-15T11:59:25.400Z,1016.70
2018-06-15T12:00:24.786Z,1016.66
2018-06-15T12:01:24.584Z,1016.78
2018-06-15T12:02:24.769Z,1016.72
2018-06-15T12:03:24.555Z,1016.75
2018-06-15T12:04:24.549Z,1016.74
2018-06-15T12:05:24.791Z,1016.72
2018-06-15T12:06:24.529Z,1016.60
2018-06-15T12:07:24.520Z,1016.67
2018-06-15T12:08:24.513Z,1016.67
2018-06-15T12:09:24.502Z,1016.65
2018-06-15T12:10:24.495Z,1016.65